Time;durP1;ratioP1;P1;durP2;ratioP2;P2;SDS_P1;SDS_P2;PMS_P1;PMS_P2;Temp;Humidity;BMP_temperature;BMP_pressure;BME280_temperature;BME280_humidity;BME280_pressure;Samples;Min_cycle;Max_cycle;Signal;HPM_P1;HPM_P2
2021/01/09 00:00:48;;;;;;;25.00;16.70;;;0.20;94.00;;;;;;4316976;33;20217;-63
2021/01/09 00:03:23;;;;;;;26.13;17.67;;;0.20;93.90;;;;;;4316777;33;20162;-62
2021/01/09 00:05:51;;;;;;;27.30;17.83;;;0.10;93.90;;;;;;4316855;33;20157;-62
2021/01/09 00:08:24;;;;;;;26.83;17.47;;;0.00;93.90;;;;;;4318508;33;20154;-63
2021/01/09 00:10:57;;;;;;;26.33;17.07;;;0.00;93.90;;;;;;4316432;33;20218;-63
2021/01/09 00:13:23;;;;;;;27.30;16.87;;;0.00;94.00;;;;;;4316723;33;20150;-63
2021/01/09 00:15:51;;;;;;;24.67;17.00;;;0.00;93.90;;;;;;4316793;33;20170;-65
2021/01/09 00:18:19;;;;;;;27.57;17.83;;;-0.10;93.90;;;;;;4314254;33;20587;-64
2021/01/09 00:20:48;;;;;;;27.17;17.53;;;-0.10;93.90;;;;;;4316200;33;20200;-63
2021/01/09 00:23:15;;;;;;;26.57;17.53;;;0.00;94.00;;;;;;4316947;33;20615;-63
2021/01/09 00:25:42;;;;;;;31.57;18.40;;;0.00;94.10;;;;;;4317015;33;20150;-64
2021/01/09 00:28:12;;;;;;;26.30;17.00;;;0.00;94.10;;;;;;4316718;33;20629;-64
2021/01/09 00:30:39;;;;;;;23.27;16.63;;;0.00;94.00;;;;;;4317210;33;20172;-66
2021/01/09 00:33:08;;;;;;;24.90;16.60;;;-0.10;93.90;;;;;;4313288;33;20192;-63
2021/01/09 00:35:36;;;;;;;27.13;17.73;;;-0.10;93.90;;;;;;4317912;33;20603;-62
2021/01/09 00:38:03;;;;;;;24.00;16.07;;;-0.10;93.90;;;;;;4317276;33;20165;-62
2021/01/09 00:40:35;;;;;;;21.53;15.60;;;-0.20;93.90;;;;;;4317581;33;20204;-63
2021/01/09 00:43:09;;;;;;;25.80;16.73;;;-0.20;93.90;;;;;;4322462;33;20172;-64
2021/01/09 00:45:43;;;;;;;25.30;16.37;;;-0.20;93.90;;;;;;4322692;33;20219;-65
2021/01/09 00:48:12;;;;;;;27.07;17.33;;;-0.20;93.90;;;;;;4317602;33;20187;-64
2021/01/09 00:50:39;;;;;;;26.77;17.77;;;-0.20;93.90;;;;;;4317297;33;20269;-63
2021/01/09 00:53:10;;;;;;;23.23;16.13;;;-0.20;93.90;;;;;;4319150;33;20509;-62
2021/01/09 00:55:39;;;;;;;30.47;17.20;;;-0.30;93.90;;;;;;4319349;33;20173;-64
2021/01/09 00:58:10;;;;;;;24.97;16.23;;;-0.20;93.90;;;;;;4327237;33;20176;-64
2021/01/09 01:00:40;;;;;;;25.23;16.37;;;-0.30;93.90;;;;;;4316190;33;20590;-63
2021/01/09 01:03:10;;;;;;;26.63;16.33;;;-0.30;93.90;;;;;;4315304;33;20155;-64
2021/01/09 01:05:37;;;;;;;25.50;16.77;;;-0.30;93.90;;;;;;4315928;33;20229;-63
2021/01/09 01:08:03;;;;;;;26.67;16.90;;;-0.30;93.90;;;;;;4317822;33;20161;-65
2021/01/09 01:10:34;;;;;;;25.43;16.40;;;-0.30;93.90;;;;;;4315477;33;20169;-66
2021/01/09 01:13:03;;;;;;;26.77;16.10;;;-0.30;93.90;;;;;;4317732;33;20605;-63
2021/01/09 01:15:31;;;;;;;25.80;16.23;;;-0.30;93.90;;;;;;4315087;33;20157;-63
2021/01/09 01:18:01;;;;;;;24.93;16.13;;;-0.40;93.90;;;;;;4316579;33;20216;-62
2021/01/09 01:20:28;;;;;;;26.60;15.67;;;-0.30;93.90;;;;;;4315481;33;20209;-65
2021/01/09 01:22:56;;;;;;;25.80;16.07;;;-0.40;93.90;;;;;;4316731;33;20583;-64
2021/01/09 01:25:25;;;;;;;26.07;16.10;;;-0.40;93.90;;;;;;4314961;33;20161;-65
2021/01/09 01:27:54;;;;;;;24.87;15.27;;;-0.40;93.90;;;;;;4315284;33;20157;-65
2021/01/09 01:30:26;;;;;;;23.83;16.07;;;-0.40;93.90;;;;;;4315501;33;20149;-63
2021/01/09 01:33:00;;;;;;;25.17;15.27;;;-0.40;93.90;;;;;;4315255;33;20158;-64
2021/01/09 01:35:32;;;;;;;22.67;15.17;;;-0.50;93.90;;;;;;4315055;33;20169;-66
2021/01/09 01:38:02;;;;;;;26.40;17.03;;;-0.40;93.90;;;;;;4315355;33;20651;-63
2021/01/09 01:40:28;;;;;;;22.10;14.77;;;-0.30;95.50;;;;;;4315612;33;20158;-64
2021/01/09 01:42:58;;;;;;;24.17;15.90;;;-0.20;96.20;;;;;;4314619;33;20150;-65
2021/01/09 01:45:25;;;;;;;21.73;14.30;;;-0.10;96.60;;;;;;4315416;33;20212;-63
2021/01/09 01:48:01;;;;;;;24.10;15.27;;;0.00;96.80;;;;;;4315576;33;20171;-64
2021/01/09 01:50:29;;;;;;;24.77;16.57;;;-0.10;96.70;;;;;;4315486;33;20582;-61
2021/01/09 01:53:04;;;;;;;22.67;14.47;;;-0.10;96.60;;;;;;4315138;33;20205;-61
2021/01/09 01:55:35;;;;;;;21.40;14.53;;;-0.20;96.50;;;;;;4316103;33;20228;-64
2021/01/09 01:58:14;;;;;;;22.33;14.37;;;-0.10;96.40;;;;;;4314205;33;20201;-63
2021/01/09 02:03:27;;;;;;;24.27;15.20;;;-0.30;96.00;;;;;;4322233;33;20224;-64
2021/01/09 02:06:03;;;;;;;26.67;17.53;;;-0.30;96.00;;;;;;4315236;33;20503;-62
2021/01/09 02:08:36;;;;;;;23.97;16.13;;;-0.40;95.90;;;;;;4304192;33;20145;-66
2021/01/09 02:11:08;;;;;;;26.53;16.90;;;-0.50;95.50;;;;;;4314994;33;20188;-63
2021/01/09 02:13:59;;;;;;;26.03;17.00;;;-0.50;95.00;;;;;;4315811;33;20177;-65
2021/01/09 02:16:29;;;;;;;24.80;15.50;;;-0.60;94.70;;;;;;4314781;33;20633;-64
2021/01/09 02:18:56;;;;;;;27.07;17.00;;;-0.50;94.80;;;;;;4315393;33;20289;-65
2021/01/09 02:21:34;;;;;;;24.57;15.57;;;-0.50;94.90;;;;;;4316925;33;20161;-63
2021/01/09 02:24:11;;;;;;;24.43;16.10;;;-0.40;94.90;;;;;;4315067;33;20168;-63
2021/01/09 02:26:44;;;;;;;25.73;16.87;;;-0.30;95.00;;;;;;4315856;33;20200;-65
2021/01/09 02:29:11;;;;;;;25.93;15.90;;;-0.20;95.00;;;;;;4311204;33;20137;-61
2021/01/09 02:31:52;;;;;;;23.63;15.50;;;-0.20;94.90;;;;;;4315315;33;20555;-64
2021/01/09 02:34:30;;;;;;;28.10;16.53;;;-0.20;94.90;;;;;;4308426;33;20228;-62
2021/01/09 02:37:02;;;;;;;28.53;17.00;;;-0.10;94.90;;;;;;4314558;33;20212;-62
2021/01/09 02:39:34;;;;;;;22.30;16.17;;;-0.20;94.60;;;;;;4314492;33;20145;-62
2021/01/09 02:42:01;;;;;;;26.87;16.73;;;-0.30;94.40;;;;;;4311378;33;20642;-65
2021/01/09 02:44:34;;;;;;;23.47;15.73;;;-0.30;94.30;;;;;;4313996;33;20154;-63
2021/01/09 02:47:06;;;;;;;26.03;15.77;;;-0.40;94.30;;;;;;4305103;33;20145;-66
2021/01/09 02:49:39;;;;;;;30.87;15.83;;;-0.40;94.30;;;;;;4301518;33;20205;-62
2021/01/09 02:52:07;;;;;;;24.67;15.80;;;-0.40;94.30;;;;;;4311354;33;20197;-63
2021/01/09 02:54:36;;;;;;;22.23;14.67;;;-0.40;94.30;;;;;;4303991;33;20155;-64
2021/01/09 02:57:10;;;;;;;24.83;14.77;;;-0.40;94.20;;;;;;4306841;33;20158;-65
2021/01/09 02:59:36;;;;;;;22.53;14.50;;;-0.50;94.20;;;;;;4315314;33;20154;-64
2021/01/09 03:02:06;;;;;;;21.23;14.03;;;-0.50;94.20;;;;;;4316134;33;20149;-67
2021/01/09 03:04:37;;;;;;;21.87;13.47;;;-0.60;94.20;;;;;;4305977;33;20176;-63
2021/01/09 03:07:04;;;;;;;26.80;14.50;;;-0.60;94.20;;;;;;4316257;33;20173;-64
2021/01/09 03:09:33;;;;;;;23.67;14.70;;;-0.60;94.20;;;;;;4316684;33;20521;-65
2021/01/09 03:12:00;;;;;;;24.97;15.13;;;-0.60;94.20;;;;;;4322911;33;20145;-62
2021/01/09 03:14:29;;;;;;;20.73;13.63;;;-0.60;94.20;;;;;;4316897;33;20513;-65
2021/01/09 03:16:59;;;;;;;24.63;14.63;;;-0.60;94.20;;;;;;4328681;33;20188;-63
2021/01/09 03:19:55;;;;;;;20.33;13.30;;;-0.60;94.20;;;;;;4310998;33;20185;-65
2021/01/09 03:22:22;;;;;;;17.00;12.63;;;-0.60;94.10;;;;;;4313560;33;20149;-64
2021/01/09 03:24:49;;;;;;;19.43;13.53;;;-0.60;94.10;;;;;;4317634;33;20559;-65
2021/01/09 03:27:26;;;;;;;20.13;13.37;;;-0.60;94.10;;;;;;4320216;33;20215;-63
2021/01/09 03:29:55;;;;;;;18.37;12.13;;;-0.70;94.10;;;;;;4328688;33;20172;-66
2021/01/09 03:32:21;;;;;;;23.33;13.57;;;-0.70;94.10;;;;;;4318972;33;20200;-64
2021/01/09 03:34:55;;;;;;;21.60;12.20;;;-0.70;94.10;;;;;;4300036;33;20177;-64
2021/01/09 03:37:24;;;;;;;22.83;14.70;;;-0.60;94.10;;;;;;4311363;33;20150;-66
2021/01/09 03:39:55;;;;;;;20.50;13.00;;;-0.70;94.10;;;;;;4315179;33;20172;-64
2021/01/09 03:42:24;;;;;;;19.10;12.33;;;-0.70;94.10;;;;;;4317894;33;20172;-63
2021/01/09 03:44:50;;;;;;;17.13;11.53;;;-0.70;94.10;;;;;;4305670;33;20583;-65
2021/01/09 03:47:22;;;;;;;18.67;12.93;;;-0.80;94.10;;;;;;4313124;33;20175;-61
2021/01/09 03:49:55;;;;;;;20.17;13.00;;;-0.80;94.10;;;;;;4314790;33;20242;-65
2021/01/09 03:52:21;;;;;;;19.17;12.13;;;-0.80;94.10;;;;;;4314242;33;20177;-67
2021/01/09 03:54:50;;;;;;;21.00;13.13;;;-0.80;94.10;;;;;;4315590;33;20164;-66
2021/01/09 03:57:27;;;;;;;20.30;12.27;;;-0.80;94.10;;;;;;4315725;33;20228;-65
2021/01/09 03:59:59;;;;;;;16.97;11.13;;;-0.80;94.10;;;;;;4313126;33;20224;-61
2021/01/09 04:02:27;;;;;;;20.67;12.33;;;-0.80;94.20;;;;;;4315577;33;20191;-62
2021/01/09 04:04:54;;;;;;;17.30;11.90;;;-0.80;94.20;;;;;;4312294;33;20192;-64
2021/01/09 04:07:23;;;;;;;17.60;12.10;;;-0.80;94.20;;;;;;4314465;33;20192;-61
2021/01/09 04:09:50;;;;;;;17.57;11.60;;;-0.90;94.20;;;;;;4320930;33;20193;-64
2021/01/09 04:12:19;;;;;;;17.90;12.17;;;-0.90;94.10;;;;;;4314667;33;20182;-65
2021/01/09 04:14:50;;;;;;;21.70;14.33;;;-0.80;94.10;;;;;;4312427;33;20211;-64
2021/01/09 04:17:17;;;;;;;18.60;11.73;;;-0.90;94.10;;;;;;4316690;33;20180;-64
2021/01/09 04:19:45;;;;;;;22.17;12.77;;;-0.90;94.10;;;;;;4317946;33;20176;-63
2021/01/09 04:22:12;;;;;;;20.70;12.60;;;-0.80;94.10;;;;;;4318126;33;20282;-61
2021/01/09 04:24:42;;;;;;;16.37;11.07;;;-0.90;94.10;;;;;;4316258;33;20654;-66
2021/01/09 04:27:15;;;;;;;20.80;12.67;;;-0.90;94.10;;;;;;4315980;33;20544;-62
2021/01/09 04:29:41;;;;;;;19.27;12.63;;;-0.90;94.10;;;;;;4317025;33;20495;-66
2021/01/09 04:32:09;;;;;;;19.90;13.07;;;-0.90;94.10;;;;;;4316933;33;20604;-66
2021/01/09 04:34:42;;;;;;;21.23;12.53;;;-0.90;94.10;;;;;;4317903;33;20223;-62
2021/01/09 04:37:10;;;;;;;22.47;13.10;;;-0.90;94.10;;;;;;4315980;33;20217;-65
2021/01/09 04:39:41;;;;;;;15.67;11.00;;;-0.90;94.10;;;;;;4316098;33;20157;-65
2021/01/09 04:42:09;;;;;;;20.37;12.43;;;-0.90;94.10;;;;;;4314867;33;20465;-66
2021/01/09 04:44:50;;;;;;;18.37;12.37;;;-0.90;94.10;;;;;;4316124;33;20592;-66
2021/01/09 04:47:25;;;;;;;23.60;12.90;;;-0.90;94.10;;;;;;4318136;33;20420;-66
2021/01/09 04:49:58;;;;;;;17.17;12.03;;;-0.90;94.10;;;;;;4305100;33;20204;-62
2021/01/09 04:52:27;;;;;;;21.43;12.03;;;-0.90;94.10;;;;;;4301701;33;20186;-62
2021/01/09 04:54:59;;;;;;;16.53;11.57;;;-1.00;94.10;;;;;;4314735;33;20197;-63
2021/01/09 04:57:36;;;;;;;20.17;12.83;;;-1.00;94.10;;;;;;4312934;33;20150;-63
2021/01/09 05:00:06;;;;;;;22.93;12.43;;;-1.00;94.10;;;;;;4307331;33;20225;-64
2021/01/09 05:02:39;;;;;;;17.37;11.63;;;-0.90;94.10;;;;;;4315964;33;20158;-65
2021/01/09 05:05:12;;;;;;;16.20;10.83;;;-1.00;94.10;;;;;;4317100;33;20192;-64
2021/01/09 05:07:47;;;;;;;19.17;12.27;;;-1.00;94.10;;;;;;4315898;33;20139;-63
2021/01/09 05:10:25;;;;;;;18.37;11.07;;;-1.00;94.10;;;;;;4316633;33;20280;-63
2021/01/09 05:12:53;;;;;;;17.40;12.17;;;-1.00;94.10;;;;;;4317648;33;20217;-62
2021/01/09 05:15:32;;;;;;;17.47;11.60;;;-1.00;94.10;;;;;;4315813;33;20192;-63
2021/01/09 05:18:01;;;;;;;19.93;11.90;;;-1.00;94.10;;;;;;4315964;33;20150;-63
2021/01/09 05:20:28;;;;;;;17.33;11.43;;;-1.10;94.10;;;;;;4317713;33;20606;-64
2021/01/09 05:23:04;;;;;;;17.73;11.53;;;-1.10;94.10;;;;;;4316766;33;20156;-63
2021/01/09 05:25:37;;;;;;;17.10;11.57;;;-1.10;94.10;;;;;;4315041;33;20184;-61
2021/01/09 05:28:06;;;;;;;20.53;11.90;;;-1.10;94.10;;;;;;4317479;33;20673;-62
2021/01/09 05:30:34;;;;;;;17.83;12.27;;;-1.10;94.10;;;;;;4314418;33;20154;-64
2021/01/09 05:33:01;;;;;;;21.97;12.43;;;-1.20;94.40;;;;;;4314804;33;20225;-65
2021/01/09 05:35:30;;;;;;;19.83;12.33;;;-1.10;94.10;;;;;;4314168;33;20153;-61
2021/01/09 05:38:01;;;;;;;25.97;11.77;;;-1.10;94.10;;;;;;4316661;33;20200;-64
2021/01/09 05:40:36;;;;;;;16.67;12.40;;;-1.10;94.20;;;;;;4318576;33;20541;-63
2021/01/09 05:43:09;;;;;;;18.43;12.57;;;-1.10;94.10;;;;;;4324779;33;20165;-63
2021/01/09 05:45:42;;;;;;;19.13;11.93;;;-1.10;94.10;;;;;;4317051;33;20473;-61
2021/01/09 05:48:13;;;;;;;22.07;12.93;;;-1.10;94.10;;;;;;4313265;33;20203;-64
2021/01/09 05:50:44;;;;;;;21.97;12.50;;;-1.10;94.10;;;;;;4323448;33;20153;-62
2021/01/09 05:53:38;;;;;;;18.57;12.40;;;-1.20;94.10;;;;;;4316954;33;20220;-63
2021/01/09 05:56:11;;;;;;;19.13;12.50;;;-1.20;94.10;;;;;;4320948;33;20165;-64
2021/01/09 05:58:41;;;;;;;21.33;12.20;;;-1.20;94.10;;;;;;4316306;33;20210;-63
2021/01/09 06:01:09;;;;;;;18.60;12.13;;;-1.20;94.10;;;;;;4324684;33;20169;-62
2021/01/09 06:03:41;;;;;;;20.67;12.47;;;-1.20;94.10;;;;;;4323099;33;20244;-63
2021/01/09 06:06:32;;;;;;;18.73;12.23;;;-1.20;94.10;;;;;;4312575;33;20156;-65
2021/01/09 06:09:03;;;;;;;19.90;12.80;;;-1.20;94.10;;;;;;4313540;33;20193;-64
2021/01/09 06:11:33;;;;;;;17.80;12.30;;;-1.30;94.10;;;;;;4315052;33;20620;-64
2021/01/09 06:14:06;;;;;;;18.10;11.93;;;-1.30;94.10;;;;;;4308478;33;20154;-65
2021/01/09 06:16:37;;;;;;;16.27;11.50;;;-1.30;94.10;;;;;;4315108;33;20195;-65
2021/01/09 06:19:11;;;;;;;19.83;12.33;;;-1.30;94.10;;;;;;4314216;33;20489;-65
2021/01/09 06:21:39;;;;;;;16.37;10.73;;;-1.30;94.10;;;;;;4315119;33;20157;-63
2021/01/09 06:24:11;;;;;;;19.53;11.60;;;-1.30;94.10;;;;;;4315970;33;20537;-63
2021/01/09 06:26:41;;;;;;;23.67;12.97;;;-1.30;94.10;;;;;;4316232;33;20146;-65
2021/01/09 06:29:20;;;;;;;17.77;11.23;;;-1.30;94.10;;;;;;4314195;33;20165;-66
2021/01/09 06:31:56;;;;;;;19.77;11.77;;;-1.40;94.10;;;;;;4314493;33;20207;-64
2021/01/09 06:34:29;;;;;;;17.23;12.07;;;-1.40;94.10;;;;;;4307122;33;20203;-64
2021/01/09 06:37:03;;;;;;;17.77;11.87;;;-1.40;94.00;;;;;;4309835;33;20268;-62
2021/01/09 06:39:34;;;;;;;17.53;11.97;;;-1.40;94.00;;;;;;4314493;33;20149;-61
2021/01/09 06:42:03;;;;;;;18.10;11.63;;;-1.40;94.00;;;;;;4314773;33;20145;-65
2021/01/09 06:44:31;;;;;;;16.40;11.33;;;-1.40;94.10;;;;;;4314502;33;20200;-62
2021/01/09 06:46:58;;;;;;;18.33;12.53;;;-1.40;94.10;;;;;;4315021;33;20141;-63
2021/01/09 06:49:27;;;;;;;19.17;12.60;;;-1.40;94.10;;;;;;4314176;33;20710;-64
2021/01/09 06:52:14;;;;;;;18.23;11.57;;;-1.40;94.10;;;;;;4314958;33;20169;-63
2021/01/09 06:54:45;;;;;;;21.07;11.63;;;-1.30;94.10;;;;;;4314798;33;20153;-62
2021/01/09 06:57:14;;;;;;;17.43;11.57;;;-1.50;94.10;;;;;;4313290;33;20292;-64
2021/01/09 06:59:41;;;;;;;17.50;11.60;;;-1.50;94.10;;;;;;4306595;33;20591;-62
2021/01/09 07:02:25;;;;;;;23.30;12.83;;;-1.40;94.10;;;;;;4314875;33;20221;-62
2021/01/09 07:05:03;;;;;;;18.50;11.87;;;-1.40;94.10;;;;;;4308876;33;20218;-62
2021/01/09 07:07:58;;;;;;;16.60;11.10;;;-1.50;94.10;;;;;;4315085;33;20165;-60
2021/01/09 07:10:31;;;;;;;19.90;11.80;;;-1.50;94.10;;;;;;4313277;33;20161;-61
2021/01/09 07:12:59;;;;;;;21.33;11.70;;;-1.50;94.10;;;;;;4311520;33;20173;-61
2021/01/09 07:15:29;;;;;;;21.53;13.10;;;-1.50;94.10;;;;;;4313193;33;20284;-62
2021/01/09 07:17:58;;;;;;;20.57;12.47;;;-1.50;94.10;;;;;;4312076;33;20142;-61
2021/01/09 07:20:28;;;;;;;16.50;11.60;;;-1.50;94.40;;;;;;4314099;33;20212;-62
2021/01/09 07:23:04;;;;;;;20.10;12.67;;;-1.50;94.10;;;;;;4313705;33;20216;-63
2021/01/09 07:25:46;;;;;;;17.00;11.73;;;-1.50;94.10;;;;;;4314154;33;20177;-62
2021/01/09 07:31:03;;;;;;;22.17;12.70;;;-1.50;94.10;;;;;;4311114;33;20721;-61
2021/01/09 07:33:32;;;;;;;26.53;14.13;;;-1.50;94.10;;;;;;4312991;33;20202;-62
2021/01/09 07:36:01;;;;;;;18.53;12.10;;;-1.60;94.10;;;;;;4313390;33;20150;-62
2021/01/09 07:38:39;;;;;;;17.67;11.67;;;-1.60;94.10;;;;;;4315400;33;20609;-61
2021/01/09 07:41:07;;;;;;;18.67;12.47;;;-1.60;94.10;;;;;;4314465;33;20191;-62
2021/01/09 07:43:41;;;;;;;19.90;12.90;;;-1.60;94.10;;;;;;4313108;33;20150;-62
2021/01/09 07:46:24;;;;;;;24.63;13.60;;;-1.60;94.20;;;;;;4315432;33;20232;-62
2021/01/09 07:49:05;;;;;;;18.40;12.03;;;-1.50;94.20;;;;;;4316457;33;20671;-63
2021/01/09 07:54:54;;;;;;;20.67;12.40;;;-1.50;94.30;;;;;;4316226;33;20188;-62
2021/01/09 07:57:44;;;;;;;18.27;11.67;;;-1.50;94.30;;;;;;4313554;33;20157;-61
2021/01/09 08:00:28;;;;;;;22.93;12.20;;;-1.50;94.30;;;;;;4316871;33;20173;-62
2021/01/09 08:02:59;;;;;;;23.53;13.87;;;-1.40;94.40;;;;;;4313874;33;20151;-66
2021/01/09 08:05:32;;;;;;;27.87;17.97;;;-1.40;94.40;;;;;;4308717;33;20196;-61
2021/01/09 08:08:34;;;;;;;30.63;19.10;;;-1.40;94.40;;;;;;4313959;33;20172;-65
2021/01/09 08:11:18;;;;;;;28.63;18.43;;;-1.30;94.50;;;;;;4318046;33;20220;-62
2021/01/09 08:13:50;;;;;;;25.83;15.57;;;-1.20;94.60;;;;;;4320725;33;20216;-62
2021/01/09 08:16:32;;;;;;;26.23;15.77;;;-1.20;94.60;;;;;;4317847;33;20165;-64
2021/01/09 08:19:26;;;;;;;21.63;13.07;;;-1.10;94.70;;;;;;4316710;33;20172;-64
2021/01/09 08:22:12;;;;;;;20.30;13.40;;;-1.10;94.60;;;;;;4322602;33;20145;-64
2021/01/09 08:24:47;;;;;;;22.27;12.80;;;-1.10;94.60;;;;;;4316639;33;20617;-65
2021/01/09 08:27:25;;;;;;;21.57;13.20;;;-1.10;94.60;;;;;;4311094;33;20153;-62
2021/01/09 08:29:53;;;;;;;18.93;12.30;;;-1.10;94.50;;;;;;4318773;33;20180;-65
2021/01/09 08:32:29;;;;;;;19.23;12.33;;;-1.10;94.60;;;;;;4316453;33;20157;-61
2021/01/09 08:34:58;;;;;;;21.47;12.73;;;-1.10;94.60;;;;;;4313985;33;20634;-62
2021/01/09 08:37:31;;;;;;;20.27;12.43;;;-1.00;94.70;;;;;;4315443;33;20678;-62
2021/01/09 08:39:58;;;;;;;18.53;12.80;;;-0.80;95.10;;;;;;4314711;33;20169;-65
2021/01/09 08:42:32;;;;;;;23.03;13.10;;;-0.60;95.60;;;;;;4315928;33;20162;-64
2021/01/09 08:45:04;;;;;;;20.30;12.67;;;-0.40;96.10;;;;;;4314656;33;20210;-62
2021/01/09 08:47:32;;;;;;;18.90;12.13;;;-0.10;96.50;;;;;;4315876;33;20157;-63
2021/01/09 08:50:07;;;;;;;18.63;13.63;;;0.10;96.80;;;;;;4313515;33;20174;-63
2021/01/09 08:52:47;;;;;;;23.00;12.90;;;0.30;96.90;;;;;;4314975;33;20649;-62
2021/01/09 08:55:14;;;;;;;23.17;13.33;;;0.40;96.80;;;;;;4315103;33;20645;-63
2021/01/09 08:57:46;;;;;;;21.37;14.63;;;0.50;96.90;;;;;;4314585;33;20292;-63
2021/01/09 09:00:17;;;;;;;22.77;13.70;;;0.50;96.60;;;;;;4316653;33;20213;-63
2021/01/09 09:02:59;;;;;;;19.03;13.77;;;0.50;96.30;;;;;;4316229;33;20157;-63
2021/01/09 09:05:37;;;;;;;20.37;13.07;;;0.60;96.40;;;;;;4315633;33;20173;-63
2021/01/09 09:08:09;;;;;;;19.37;12.70;;;0.70;96.40;;;;;;4314448;33;20232;-63
2021/01/09 09:10:40;;;;;;;26.37;14.63;;;0.60;96.10;;;;;;4314487;33;20551;-66
2021/01/09 09:13:21;;;;;;;19.30;14.03;;;0.70;96.20;;;;;;4314205;33;20268;-63
2021/01/09 09:15:48;;;;;;;21.10;14.50;;;0.80;96.30;;;;;;4313766;33;20220;-63
2021/01/09 09:18:15;;;;;;;21.20;13.70;;;0.90;96.20;;;;;;4313990;33;20257;-67
2021/01/09 09:20:46;;;;;;;19.40;13.27;;;0.90;96.10;;;;;;4315057;33;20157;-63
2021/01/09 09:23:36;;;;;;;19.17;12.70;;;0.90;95.90;;;;;;4314372;33;20162;-62
2021/01/09 09:26:07;;;;;;;23.70;13.50;;;1.00;95.70;;;;;;4314243;33;20172;-63
2021/01/09 09:28:48;;;;;;;20.37;13.53;;;1.10;95.60;;;;;;4313376;33;20153;-64
2021/01/09 09:31:49;;;;;;;19.03;14.07;;;1.10;95.60;;;;;;4309171;33;20531;-64
2021/01/09 09:34:35;;;;;;;21.33;13.87;;;1.20;95.60;;;;;;4295869;33;20165;-63
2021/01/09 09:37:09;;;;;;;22.93;13.17;;;1.30;95.50;;;;;;4296905;33;20188;-63
2021/01/09 09:39:56;;;;;;;19.60;13.10;;;1.40;95.40;;;;;;4296261;33;20156;-63
2021/01/09 09:42:31;;;;;;;19.23;13.73;;;1.50;95.40;;;;;;4297104;33;20166;-62
2021/01/09 09:45:13;;;;;;;18.60;13.63;;;1.50;95.30;;;;;;4296471;33;20187;-62
2021/01/09 09:47:47;;;;;;;19.87;14.17;;;1.60;95.40;;;;;;4295655;33;20158;-62
2021/01/09 09:50:25;;;;;;;17.30;14.40;;;1.80;95.50;;;;;;4297309;33;20153;-67
2021/01/09 09:53:07;;;;;;;19.27;13.37;;;1.90;95.60;;;;;;4308624;33;20180;-64
2021/01/09 09:55:40;;;;;;;20.57;14.60;;;2.10;95.70;;;;;;4315581;33;20216;-63
2021/01/09 09:58:17;;;;;;;20.23;14.00;;;2.20;95.50;;;;;;4316361;33;20627;-63
2021/01/09 10:00:49;;;;;;;27.13;14.00;;;2.20;95.50;;;;;;4313930;33;20161;-64
2021/01/09 10:03:21;;;;;;;24.50;15.33;;;2.40;95.60;;;;;;4314489;33;20586;-67
2021/01/09 10:06:03;;;;;;;22.37;14.17;;;2.50;95.60;;;;;;4314400;33;20157;-63
2021/01/09 10:08:29;;;;;;;17.13;13.63;;;2.50;95.60;;;;;;4313961;33;20263;-66
2021/01/09 10:10:58;;;;;;;24.67;15.07;;;2.70;95.60;;;;;;4311692;33;20168;-65
2021/01/09 10:13:29;;;;;;;17.43;12.33;;;2.70;95.70;;;;;;4314793;33;20224;-64
2021/01/09 10:16:00;;;;;;;18.93;13.10;;;2.70;95.70;;;;;;4313916;33;20158;-63
2021/01/09 10:18:28;;;;;;;13.10;10.57;;;2.60;95.70;;;;;;4313384;33;20193;-67
2021/01/09 10:20:56;;;;;;;14.90;11.23;;;2.40;95.10;;;;;;4314859;33;20161;-63
2021/01/09 10:23:25;;;;;;;16.77;11.07;;;2.20;94.50;;;;;;4313904;33;20157;-63
2021/01/09 10:25:51;;;;;;;18.20;11.07;;;1.90;94.30;;;;;;4315521;33;20649;-62
2021/01/09 10:28:19;;;;;;;15.77;11.73;;;1.70;94.20;;;;;;4314303;33;20153;-64
2021/01/09 10:30:52;;;;;;;18.37;12.80;;;1.60;94.40;;;;;;3966907;33;11659834;-64
2021/01/09 10:33:22;;;;;;;19.23;13.03;;;1.60;94.60;;;;;;4312128;33;20194;-61
2021/01/09 10:35:58;;;;;;;18.87;12.83;;;1.60;94.70;;;;;;4312563;33;20198;-64
2021/01/09 10:38:27;;;;;;;18.67;13.33;;;1.60;94.80;;;;;;4307445;33;20222;-64
2021/01/09 10:41:05;;;;;;;21.30;12.30;;;1.60;94.90;;;;;;4311014;33;20269;-64
2021/01/09 10:43:37;;;;;;;18.73;12.47;;;1.60;95.00;;;;;;4311962;33;20185;-64
2021/01/09 10:46:04;;;;;;;15.77;11.33;;;1.60;95.10;;;;;;4316069;33;20211;-62
2021/01/09 10:48:36;;;;;;;16.17;11.67;;;1.70;95.20;;;;;;4313229;33;20180;-63
2021/01/09 10:51:03;;;;;;;18.27;12.67;;;1.70;95.30;;;;;;4309677;33;20224;-61
2021/01/09 10:53:39;;;;;;;25.10;11.90;;;1.80;95.40;;;;;;4314552;33;20192;-61
2021/01/09 10:56:07;;;;;;;22.57;11.17;;;1.80;95.40;;;;;;4313187;33;20257;-62
2021/01/09 10:58:33;;;;;;;19.03;10.93;;;1.90;95.50;;;;;;4311470;33;20173;-63
2021/01/09 11:01:03;;;;;;;19.67;12.43;;;1.90;95.60;;;;;;4308188;33;20165;-62
2021/01/09 11:03:35;;;;;;;19.27;11.37;;;2.00;95.60;;;;;;4311603;33;20165;-62
2021/01/09 11:06:04;;;;;;;14.40;10.47;;;2.10;95.70;;;;;;4311560;33;20185;-62
2021/01/09 11:08:33;;;;;;;20.20;10.93;;;2.10;95.60;;;;;;4312061;33;20166;-64
2021/01/09 11:11:06;;;;;;;15.90;9.40;;;2.10;95.70;;;;;;4313818;33;20165;-62
2021/01/09 11:13:44;;;;;;;18.13;8.93;;;2.20;95.70;;;;;;4312493;33;20331;-62
2021/01/09 11:16:28;;;;;;;19.20;9.33;;;2.30;95.70;;;;;;4311638;33;20171;-66
2021/01/09 11:19:04;;;;;;;17.37;10.70;;;2.40;95.70;;;;;;4317310;33;20241;-64
2021/01/09 11:21:32;;;;;;;18.13;10.03;;;2.30;95.70;;;;;;4317578;33;20192;-65
2021/01/09 11:24:18;;;;;;;16.67;7.90;;;2.40;95.60;;;;;;4312117;33;20177;-63
2021/01/09 11:26:48;;;;;;;16.50;9.30;;;2.50;95.80;;;;;;4313522;33;20165;-63
2021/01/09 11:29:23;;;;;;;17.43;9.23;;;2.70;95.90;;;;;;4311750;33;20516;-65
2021/01/09 11:31:56;;;;;;;18.03;8.87;;;2.90;96.80;;;;;;4302404;33;20258;-62
2021/01/09 11:34:26;;;;;;;13.07;7.97;;;3.40;98.10;;;;;;4315859;33;20224;-66
2021/01/09 11:36:55;;;;;;;13.33;7.43;;;3.90;99.10;;;;;;4314176;33;20225;-62
2021/01/09 11:39:21;;;;;;;19.67;7.10;;;4.10;99.10;;;;;;4316344;33;20169;-61
2021/01/09 11:41:54;;;;;;;13.67;7.13;;;4.00;98.30;;;;;;4313515;33;20232;-64
2021/01/09 11:44:24;;;;;;;10.90;6.20;;;3.80;96.40;;;;;;4313359;33;20169;-63
2021/01/09 11:46:53;;;;;;;15.77;6.00;;;3.60;95.80;;;;;;4309378;33;20159;-67
2021/01/09 11:49:20;;;;;;;11.83;5.40;;;3.50;95.40;;;;;;4313487;33;20158;-62
2021/01/09 11:51:49;;;;;;;9.90;5.47;;;3.50;94.80;;;;;;4312020;33;20205;-62
2021/01/09 11:54:15;;;;;;;14.30;6.07;;;3.50;95.10;;;;;;4311868;33;20171;-63
2021/01/09 11:56:45;;;;;;;8.50;4.67;;;3.40;95.00;;;;;;4312898;33;20241;-62
2021/01/09 11:59:19;;;;;;;8.73;4.50;;;3.50;94.80;;;;;;4310928;33;20585;-65
2021/01/09 12:01:49;;;;;;;12.33;5.07;;;3.50;94.30;;;;;;4313011;33;20161;-61
2021/01/09 12:04:22;;;;;;;13.13;6.03;;;3.60;94.60;;;;;;4311782;33;20163;-63
2021/01/09 12:06:49;;;;;;;9.53;5.20;;;3.60;94.60;;;;;;4314847;33;20525;-65
2021/01/09 12:09:16;;;;;;;17.50;5.37;;;3.70;94.40;;;;;;4312736;33;20205;-63
2021/01/09 12:11:43;;;;;;;8.93;4.30;;;3.70;95.00;;;;;;4313444;33;20225;-64
2021/01/09 12:14:17;;;;;;;12.97;4.50;;;4.00;93.80;;;;;;4318094;33;20153;-62
2021/01/09 12:16:48;;;;;;;8.83;3.90;;;4.30;94.40;;;;;;4318547;33;20182;-62
2021/01/09 12:19:24;;;;;;;12.77;4.10;;;4.60;95.00;;;;;;4313141;33;20184;-62
2021/01/09 12:21:59;;;;;;;14.37;4.43;;;4.70;95.00;;;;;;4306415;33;20202;-62
2021/01/09 12:24:31;;;;;;;12.33;4.53;;;4.90;95.60;;;;;;4314365;33;20173;-63
2021/01/09 12:27:01;;;;;;;10.60;4.00;;;5.00;95.40;;;;;;4316399;33;20174;-66
2021/01/09 12:29:30;;;;;;;11.53;4.50;;;5.00;95.60;;;;;;4307573;33;20610;-64
2021/01/09 12:32:07;;;;;;;7.33;4.23;;;5.00;93.40;;;;;;4319699;33;20193;-63
2021/01/09 12:34:35;;;;;;;11.67;4.00;;;4.90;94.00;;;;;;4308511;33;20592;-65
2021/01/09 12:37:10;;;;;;;8.13;4.37;;;4.90;94.10;;;;;;4321596;33;20186;-63
2021/01/09 12:39:40;;;;;;;9.63;4.90;;;4.70;93.60;;;;;;4311969;33;20208;-63
2021/01/09 12:42:11;;;;;;;9.77;3.57;;;4.50;93.10;;;;;;4321268;33;20158;-65
2021/01/09 12:44:45;;;;;;;12.50;4.17;;;4.40;93.80;;;;;;4315377;33;20183;-63
2021/01/09 12:47:17;;;;;;;10.50;4.27;;;4.40;94.10;;;;;;4319707;33;20609;-63
2021/01/09 12:49:44;;;;;;;12.87;4.10;;;4.40;94.60;;;;;;4316781;33;20184;-64
2021/01/09 12:52:13;;;;;;;10.97;3.73;;;4.80;94.60;;;;;;4317690;33;20566;-62
2021/01/09 12:54:42;;;;;;;7.60;3.47;;;4.70;94.20;;;;;;4311749;33;20176;-63
2021/01/09 12:57:09;;;;;;;10.60;3.67;;;4.60;93.70;;;;;;4313430;33;20162;-63
2021/01/09 12:59:35;;;;;;;11.67;3.90;;;4.50;93.50;;;;;;4315538;33;20193;-63
2021/01/09 13:02:07;;;;;;;8.00;3.30;;;4.50;93.60;;;;;;4310266;33;20885;-63
2021/01/09 13:04:33;;;;;;;6.13;2.70;;;4.40;93.40;;;;;;4313741;33;20654;-63
2021/01/09 13:07:02;;;;;;;6.30;2.60;;;4.40;93.00;;;;;;4310279;33;20225;-64